Time;durP1;ratioP1;P1;durP2;ratioP2;P2;SDS_P1;SDS_P2;PMS_P1;PMS_P2;Temp;Humidity;BMP_temperature;BMP_pressure;BME280_temperature;BME280_humidity;BME280_pressure;Samples;Min_cycle;Max_cycle;Signal;HPM_P1;HPM_P2
2022/05/27 00:01:17;;;;;;;2.20;0.80;;;;;;;17.92;49.86;98960.00;1787314;79;20879;-75
2022/05/27 00:03:44;;;;;;;1.65;0.70;;;;;;;17.91;49.89;98965.11;1787324;80;20884;-75
2022/05/27 00:06:10;;;;;;;1.55;0.80;;;;;;;17.88;49.85;98955.08;1777929;80;20939;-73
2022/05/27 00:08:37;;;;;;;1.47;0.82;;;;;;;17.89;49.81;98959.94;1759703;80;21009;-75
2022/05/27 00:11:04;;;;;;;0.65;0.65;;;;;;;17.89;49.76;98965.32;1759771;80;21853;-74
2022/05/27 00:13:31;;;;;;;0.68;0.60;;;;;;;17.89;49.83;98958.59;1759648;80;20974;-74
2022/05/27 00:15:58;;;;;;;2.20;1.15;;;;;;;17.88;49.99;98958.31;1768198;80;20986;-74
2022/05/27 00:18:25;;;;;;;1.20;0.68;;;;;;;17.86;49.94;98963.91;1759652;80;21421;-74
2022/05/27 00:20:52;;;;;;;3.35;0.98;;;;;;;17.86;50.08;98956.36;1724812;83;21048;-74
2022/05/27 00:23:18;;;;;;;3.05;0.80;;;;;;;17.84;50.03;98959.29;1716272;82;21162;-74
2022/05/27 00:25:46;;;;;;;1.05;0.80;;;;;;;17.84;50.02;98961.16;1716003;82;20993;-74
2022/05/27 00:28:13;;;;;;;2.17;0.57;;;;;;;17.81;50.13;98954.36;1709978;82;20998;-74
2022/05/27 00:30:40;;;;;;;2.80;0.90;;;;;;;17.82;50.09;98957.87;1709948;82;21285;-74
2022/05/27 00:33:06;;;;;;;1.82;0.80;;;;;;;17.79;50.17;98959.67;1711002;82;20943;-74
2022/05/27 00:35:34;;;;;;;1.45;0.68;;;;;;;17.79;50.23;98961.02;1703118;83;20926;-74
2022/05/27 00:38:01;;;;;;;1.17;0.78;;;;;;;17.78;50.31;98962.09;1723062;82;20934;-74
2022/05/27 00:40:38;;;;;;;1.30;0.85;;;;;;;17.75;50.37;98953.92;1709967;82;21552;-74
2022/05/27 00:43:06;;;;;;;1.52;1.00;;;;;;;17.75;50.42;98960.65;1727560;82;20893;-74
2022/05/27 00:45:34;;;;;;;1.10;0.75;;;;;;;17.74;50.49;98958.20;1729232;82;20885;-74
2022/05/27 00:48:02;;;;;;;1.60;0.95;;;;;;;17.71;50.59;98956.78;1713421;82;21148;-74
2022/05/27 00:50:32;;;;;;;2.15;1.05;;;;;;;17.69;50.72;98953.52;1700891;82;21571;-74
2022/05/27 00:52:59;;;;;;;1.80;1.10;;;;;;;17.66;50.81;98947.76;1710098;82;20939;-75
2022/05/27 00:55:30;;;;;;;1.65;1.00;;;;;;;17.64;51.03;98946.66;1718340;82;20900;-73
2022/05/27 00:58:17;;;;;;;2.62;1.00;;;;;;;17.64;51.18;98946.66;1736426;81;21058;-75
2022/05/27 01:00:43;;;;;;;1.57;1.05;;;;;;;17.61;51.25;98947.63;1717976;82;21245;-75
2022/05/27 01:03:12;;;;;;;1.12;0.90;;;;;;;17.59;51.38;98945.17;1717755;82;21005;-75
2022/05/27 01:05:41;;;;;;;1.07;0.90;;;;;;;17.59;51.48;98941.66;1725927;82;20955;-76
2022/05/27 01:08:09;;;;;;;1.77;0.72;;;;;;;17.60;51.40;98936.55;1745110;80;21343;-75
2022/05/27 01:10:50;;;;;;;2.15;0.90;;;;;;;17.59;51.44;98947.04;1754109;80;20975;-74
2022/05/27 01:13:22;;;;;;;0.93;0.65;;;;;;;17.58;51.40;98950.77;1753519;80;21151;-76
2022/05/27 01:16:15;;;;;;;1.20;1.05;;;;;;;17.57;51.48;98946.45;1762597;80;20974;-74
2022/05/27 01:22:24;;;;;;;1.55;0.93;;;;;;;17.56;51.52;98948.83;1754008;80;21408;-72
2022/05/27 01:25:36;;;;;;;3.30;0.93;;;;;;;17.51;51.64;98948.14;1779989;80;20923;-74
2022/05/27 01:28:14;;;;;;;0.90;0.90;;;;;;;17.50;51.74;98939.77;1755353;80;21271;-73
2022/05/27 01:31:06;;;;;;;1.87;1.25;;;;;;;17.49;51.88;98938.15;1753924;80;20977;-74
2022/05/27 01:34:03;;;;;;;3.95;1.42;;;;;;;17.49;51.97;98940.84;1734339;80;20907;-74
2022/05/27 01:36:58;;;;;;;2.35;1.30;;;;;;;17.49;52.09;98938.67;1763054;80;20919;-74
2022/05/27 01:39:50;;;;;;;3.50;1.95;;;;;;;17.49;52.26;98940.02;1778834;80;20985;-74
2022/05/27 01:42:24;;;;;;;2.15;1.30;;;;;;;17.50;52.33;98940.29;1783937;80;21644;-74
2022/05/27 01:44:58;;;;;;;2.52;1.50;;;;;;;17.49;52.53;98939.50;1782323;80;21323;-73
2022/05/27 01:48:03;;;;;;;4.55;1.25;;;;;;;17.49;52.71;98942.19;1760985;80;20915;-74
2022/05/27 01:50:38;;;;;;;1.22;1.10;;;;;;;17.49;52.93;98938.15;1754114;80;21456;-74
2022/05/27 01:53:18;;;;;;;1.07;0.95;;;;;;;17.50;53.11;98942.45;1775114;80;20931;-73
2022/05/27 01:55:53;;;;;;;2.90;0.93;;;;;;;17.49;53.31;98944.05;1769033;79;21118;-73
2022/05/27 01:58:28;;;;;;;1.67;0.85;;;;;;;17.50;53.52;98945.67;1783201;80;20927;-74
2022/05/27 02:00:54;;;;;;;1.32;1.15;;;;;;;17.50;53.66;98941.63;1776697;79;20964;-73
2022/05/27 02:03:28;;;;;;;2.55;1.05;;;;;;;17.48;53.87;98936.50;1754188;80;20982;-73
2022/05/27 02:06:00;;;;;;;1.80;1.27;;;;;;;17.48;54.08;98943.22;1712363;81;20959;-72
2022/05/27 02:08:31;;;;;;;1.17;1.07;;;;;;;17.47;54.26;98944.25;1763842;80;21200;-73
2022/05/27 02:11:03;;;;;;;1.27;1.17;;;;;;;17.49;54.41;98941.36;1754188;80;20923;-74
2022/05/27 02:13:34;;;;;;;1.30;1.20;;;;;;;17.46;54.61;98943.98;1784034;80;21430;-75
2022/05/27 02:16:02;;;;;;;3.47;1.17;;;;;;;17.46;54.76;98938.59;1763612;80;20930;-75
2022/05/27 02:18:35;;;;;;;1.47;1.12;;;;;;;17.46;54.97;98941.80;1760565;80;21469;-74
2022/05/27 02:21:06;;;;;;;2.00;1.17;;;;;;;17.44;55.08;98942.02;1746702;80;21712;-74
2022/05/27 02:23:39;;;;;;;2.10;1.27;;;;;;;17.44;55.21;98935.84;1753927;80;21375;-75
2022/05/27 02:26:10;;;;;;;2.02;1.05;;;;;;;17.43;55.36;98944.42;1727784;82;20883;-73
2022/05/27 02:28:40;;;;;;;4.75;1.40;;;;;;;17.44;55.39;98937.98;1714774;82;20912;-75
2022/05/27 02:31:11;;;;;;;1.65;1.10;;;;;;;17.44;55.53;98940.67;1710050;82;20937;-74
2022/05/27 02:36:40;;;;;;;2.15;1.00;;;;;;;17.43;55.77;98944.42;1715970;82;20927;-73
2022/05/27 02:39:07;;;;;;;4.50;0.85;;;;;;;17.44;55.87;98941.22;1715707;82;21530;-72
2022/05/27 02:41:48;;;;;;;1.80;1.25;;;;;;;17.44;56.01;98943.91;1716252;82;20895;-74
2022/05/27 02:44:52;;;;;;;1.12;1.07;;;;;;;17.46;56.09;98948.01;1709396;82;21418;-73
2022/05/27 02:47:36;;;;;;;1.30;1.17;;;;;;;17.50;56.17;98950.52;1719893;82;21525;-73
2022/05/27 02:50:20;;;;;;;3.12;1.35;;;;;;;17.52;56.18;98953.80;1738221;82;21572;-73
2022/05/27 02:53:24;;;;;;;4.85;1.30;;;;;;;17.51;56.18;98955.39;1738233;81;20904;-73
2022/05/27 02:56:14;;;;;;;1.27;1.12;;;;;;;17.50;56.27;98951.88;1650411;82;20982;-73
2022/05/27 02:58:40;;;;;;;2.92;1.50;;;;;;;17.51;56.27;98951.35;1718823;82;21066;-73
2022/05/27 03:01:07;;;;;;;3.40;1.20;;;;;;;17.50;56.32;98950.52;1712086;82;21014;-76
2022/05/27 03:03:33;;;;;;;1.92;1.27;;;;;;;17.50;56.44;98951.05;1678797;84;20940;-74
2022/05/27 03:06:28;;;;;;;1.62;1.30;;;;;;;17.50;56.51;98948.36;1730854;82;20954;-75
2022/05/27 03:09:03;;;;;;;2.58;1.50;;;;;;;17.50;56.54;98951.05;1725306;80;20997;-74
2022/05/27 03:12:08;;;;;;;5.37;1.22;;;;;;;17.49;56.64;98944.05;1719987;82;20966;-73
2022/05/27 03:15:01;;;;;;;1.62;1.20;;;;;;;17.49;56.75;98948.08;1711554;82;21576;-73
2022/05/27 03:17:47;;;;;;;2.15;1.00;;;;;;;17.47;56.95;98950.98;1739411;80;20949;-74
2022/05/27 03:20:26;;;;;;;4.47;1.27;;;;;;;17.49;57.14;98944.05;1720245;82;21476;-74
2022/05/27 03:23:21;;;;;;;7.12;1.42;;;;;;;17.52;57.36;98943.59;1720314;82;21009;-73
2022/05/27 03:26:01;;;;;;;4.50;1.47;;;;;;;17.56;57.46;98944.80;1730000;80;21614;-74
2022/05/27 03:29:05;;;;;;;2.62;1.12;;;;;;;17.60;57.33;98942.77;1708397;82;21159;-73
2022/05/27 03:31:57;;;;;;;2.00;1.17;;;;;;;17.64;57.35;98944.48;1720102;82;20847;-74
2022/05/27 03:34:40;;;;;;;2.05;1.30;;;;;;;17.68;57.20;98945.66;1758305;80;21610;-75
2022/05/27 03:37:16;;;;;;;2.27;1.25;;;;;;;17.68;56.98;98945.14;1770075;80;20896;-76
2022/05/27 03:40:18;;;;;;;2.80;1.12;;;;;;;17.70;57.19;98943.58;1754068;79;21568;-75
2022/05/27 03:42:44;;;;;;;4.72;1.37;;;;;;;17.73;57.04;98946.61;1780105;80;21117;-73
2022/05/27 03:45:16;;;;;;;1.32;1.22;;;;;;;17.79;56.99;98945.70;1782627;80;20974;-73
2022/05/27 03:47:43;;;;;;;2.98;1.30;;;;;;;17.85;56.98;98943.97;1762782;80;20939;-73
2022/05/27 03:50:15;;;;;;;1.77;1.12;;;;;;;17.92;56.91;98949.24;1754149;80;21429;-73
2022/05/27 03:52:47;;;;;;;1.72;1.30;;;;;;;17.99;56.76;98946.74;1754090;80;21509;-73
2022/05/27 03:55:17;;;;;;;1.10;1.02;;;;;;;18.06;56.52;98946.14;1760611;80;21177;-73
2022/05/27 03:57:44;;;;;;;2.15;1.30;;;;;;;18.14;56.35;98945.80;1763178;80;21138;-74
2022/05/27 04:00:13;;;;;;;2.12;1.32;;;;;;;18.21;56.10;98942.98;1754128;80;20982;-73
2022/05/27 04:02:42;;;;;;;3.58;1.50;;;;;;;18.27;55.91;98942.90;1754007;80;20994;-73
2022/05/27 04:05:10;;;;;;;1.92;1.10;;;;;;;18.34;55.59;98934.70;1757931;80;20930;-75
2022/05/27 04:07:38;;;;;;;1.92;1.20;;;;;;;18.39;55.31;98936.98;1786077;80;21132;-75
2022/05/27 04:10:08;;;;;;;2.22;1.50;;;;;;;18.45;55.35;98935.23;1763293;80;20978;-73
2022/05/27 04:12:35;;;;;;;1.87;1.22;;;;;;;18.48;55.16;98937.50;1759739;80;21456;-73
2022/05/27 04:15:03;;;;;;;2.90;1.20;;;;;;;18.53;55.17;98938.96;1763586;80;20974;-73
2022/05/27 04:17:33;;;;;;;2.80;1.92;;;;;;;18.57;54.92;98936.08;1760605;80;20895;-73
2022/05/27 04:20:07;;;;;;;5.62;1.67;;;;;;;18.63;54.75;98936.50;1769392;80;21225;-73
2022/05/27 04:22:34;;;;;;;3.55;1.42;;;;;;;18.70;54.62;98940.41;1780778;80;20903;-73
2022/05/27 04:25:02;;;;;;;2.20;1.67;;;;;;;18.78;54.54;98940.87;1787870;79;21627;-73
2022/05/27 04:27:29;;;;;;;4.53;1.52;;;;;;;18.89;54.50;98939.22;1767533;80;21439;-73
2022/05/27 04:29:56;;;;;;;2.83;1.42;;;;;;;18.93;54.13;98932.29;1771221;80;20986;-73
2022/05/27 04:32:22;;;;;;;5.05;1.40;;;;;;;18.98;53.83;98931.08;1768601;80;21069;-73
2022/05/27 04:34:53;;;;;;;2.27;1.17;;;;;;;19.00;53.75;98931.13;1760335;80;20990;-73
2022/05/27 04:37:19;;;;;;;2.12;1.52;;;;;;;19.04;53.49;98938.20;1780614;80;20924;-73
2022/05/27 04:39:46;;;;;;;4.47;1.42;;;;;;;19.05;53.33;98931.23;1787878;78;20885;-72
2022/05/27 04:42:14;;;;;;;2.80;1.60;;;;;;;19.10;53.36;98935.91;1780365;80;20982;-74
2022/05/27 04:44:41;;;;;;;2.42;1.60;;;;;;;19.13;53.08;98927.88;1789720;79;21239;-73
2022/05/27 04:47:07;;;;;;;3.42;2.05;;;;;;;19.14;53.09;98932.22;1768548;80;21452;-75
2022/05/27 04:49:51;;;;;;;3.35;3.05;;;;;;;19.13;52.88;98921.95;1768465;78;20915;-73
2022/05/27 04:52:20;;;;;;;3.55;3.05;;;;;;;19.16;52.76;98924.70;1764543;80;20978;-73
2022/05/27 04:54:48;;;;;;;6.33;3.40;;;;;;;19.20;52.82;98925.33;1759315;80;20907;-74
2022/05/27 04:57:18;;;;;;;5.35;2.72;;;;;;;19.29;52.61;98922.56;1782877;80;21094;-74
2022/05/27 04:59:46;;;;;;;3.12;2.60;;;;;;;19.39;52.13;98923.31;1789623;80;21008;-76
2022/05/27 05:02:18;;;;;;;4.03;2.80;;;;;;;19.49;52.07;98926.20;1773442;79;20931;-72
2022/05/27 05:04:42;;;;;;;6.83;2.72;;;;;;;19.67;51.81;98925.48;1759018;80;21010;-72
2022/05/27 05:07:09;;;;;;;5.15;2.80;;;;;;;19.82;51.38;98925.45;1764069;80;21482;-76
2022/05/27 05:09:37;;;;;;;2.77;2.30;;;;;;;19.96;51.04;98914.64;1744448;81;21401;-74
2022/05/27 05:12:06;;;;;;;2.72;2.02;;;;;;;20.14;50.47;98917.94;1748272;81;21386;-75
2022/05/27 05:14:33;;;;;;;2.25;2.05;;;;;;;20.28;50.05;98921.16;1750435;81;20915;-73
2022/05/27 05:16:59;;;;;;;3.40;1.80;;;;;;;20.39;49.47;98916.19;1747915;81;20931;-72
2022/05/27 05:19:26;;;;;;;1.55;1.45;;;;;;;20.46;49.46;98914.16;1743686;81;20844;-71
2022/05/27 05:21:53;;;;;;;2.40;1.60;;;;;;;20.54;49.07;98910.21;1743625;81;22087;-71
2022/05/27 05:24:19;;;;;;;1.85;1.50;;;;;;;20.61;49.02;98908.14;1748906;81;20971;-71
2022/05/27 05:26:47;;;;;;;1.40;1.30;;;;;;;20.70;48.74;98908.02;1747633;81;21505;-75
2022/05/27 05:29:14;;;;;;;2.10;1.70;;;;;;;20.76;48.63;98909.17;1748678;81;21132;-75
2022/05/27 05:31:40;;;;;;;4.53;1.98;;;;;;;20.82;48.40;98900.08;1756945;80;21063;-74
2022/05/27 05:34:06;;;;;;;3.65;1.60;;;;;;;20.87;48.35;98902.02;1752449;79;21640;-75
2022/05/27 05:36:34;;;;;;;4.47;1.55;;;;;;;20.88;48.06;98900.41;1753307;79;20920;-72
2022/05/27 05:39:03;;;;;;;3.20;1.80;;;;;;;20.90;47.96;98904.23;1743006;81;20975;-72
2022/05/27 05:41:37;;;;;;;1.95;1.70;;;;;;;20.96;48.01;98898.36;1743234;81;20974;-72
2022/05/27 05:44:08;;;;;;;2.15;1.77;;;;;;;21.05;47.99;98894.95;1743003;81;21426;-71
2022/05/27 05:46:37;;;;;;;3.02;1.42;;;;;;;21.16;47.51;98885.94;1751436;81;21600;-72
2022/05/27 05:49:05;;;;;;;2.15;1.50;;;;;;;21.29;47.38;98894.20;1743008;81;20990;-73
2022/05/27 05:51:33;;;;;;;3.62;1.90;;;;;;;21.46;47.47;98886.80;1743147;81;20988;-73
2022/05/27 05:54:00;;;;;;;4.10;1.65;;;;;;;21.95;46.70;98878.91;1743222;81;20939;-73
2022/05/27 05:56:31;;;;;;;2.02;1.90;;;;;;;21.95;46.70;98878.91;1758026;81;20999;-72
2022/05/27 05:58:57;;;;;;;4.72;2.00;;;;;;;22.16;45.25;98878.53;1747170;81;21260;-73
2022/05/27 06:01:24;;;;;;;2.75;1.65;;;;;;;22.16;45.25;98878.53;1743018;81;20943;-73
2022/05/27 06:03:51;;;;;;;3.67;1.80;;;;;;;22.25;44.92;98882.41;1743386;81;21022;-72
2022/05/27 06:06:19;;;;;;;2.60;2.10;;;;;;;22.54;44.80;98875.58;1749882;81;21524;-73
2022/05/27 06:08:46;;;;;;;2.33;1.80;;;;;;;23.11;44.25;98881.04;1767871;80;20978;-73
2022/05/27 06:11:12;;;;;;;5.40;1.85;;;;;;;23.61;43.43;98872.80;1764358;80;21233;-72
2022/05/27 06:13:40;;;;;;;9.68;1.87;;;;;;;24.32;42.12;98866.34;1772535;80;21622;-75
2022/05/27 06:16:08;;;;;;;2.83;1.42;;;;;;;24.75;40.72;98870.85;1771320;78;20906;-74
2022/05/27 06:18:35;;;;;;;2.35;1.40;;;;;;;25.15;40.25;98857.14;1740679;81;21689;-73
2022/05/27 06:21:02;;;;;;;3.92;1.60;;;;;;;25.63;39.17;98852.25;1771601;79;21429;-72
2022/05/27 06:23:29;;;;;;;2.90;1.47;;;;;;;25.82;38.12;98846.95;1738921;80;21635;-74
2022/05/27 06:25:57;;;;;;;4.65;1.82;;;;;;;25.85;37.43;98842.30;1757642;80;20934;-73
2022/05/27 06:36:40;;;;;;;2.10;1.60;;;;;;;25.54;36.78;98838.16;1783620;79;21672;-72
2022/05/27 06:39:11;;;;;;;3.33;1.40;;;;;;;25.38;36.28;98846.94;1770307;79;21032;-73
2022/05/27 06:41:36;;;;;;;4.70;1.50;;;;;;;25.25;36.49;98842.12;1771638;79;21694;-71
2022/05/27 06:44:03;;;;;;;2.77;1.52;;;;;;;25.30;36.73;98839.91;1775793;80;20998;-72
2022/05/27 06:46:31;;;;;;;3.55;1.35;;;;;;;25.48;36.65;98833.30;1765731;80;21052;-72
2022/05/27 06:48:57;;;;;;;3.10;1.80;;;;;;;25.75;36.36;98838.29;1785202;79;21268;-74
2022/05/27 06:51:24;;;;;;;4.30;1.40;;;;;;;25.83;35.43;98834.14;1764598;80;20882;-72
2022/05/27 06:53:51;;;;;;;2.52;1.47;;;;;;;25.96;35.75;98828.86;1757029;80;21001;-76
2022/05/27 06:56:18;;;;;;;2.22;1.40;;;;;;;26.06;35.28;98827.41;1762033;78;21063;-71
2022/05/27 06:58:44;;;;;;;4.12;1.60;;;;;;;26.08;35.48;98824.38;1757366;80;20927;-68
2022/05/27 07:01:12;;;;;;;3.40;1.60;;;;;;;26.29;35.62;98821.77;1766804;80;21081;-67
2022/05/27 07:03:39;;;;;;;2.37;1.67;;;;;;;26.47;34.81;98816.12;1780311;80;20911;-74
2022/05/27 07:06:07;;;;;;;5.53;2.47;;;;;;;26.67;34.78;98809.88;1787282;79;21389;-74
2022/05/27 07:08:35;;;;;;;4.83;1.60;;;;;;;27.21;34.74;98813.61;1789168;80;20939;-75
2022/05/27 07:11:03;;;;;;;3.92;1.60;;;;;;;27.75;33.07;98812.27;1789695;79;20991;-72
2022/05/27 07:13:31;;;;;;;2.45;1.57;;;;;;;27.93;32.36;98810.06;1789964;80;21454;-72
2022/05/27 07:15:59;;;;;;;4.65;1.60;;;;;;;27.98;32.44;98803.95;1789611;79;21030;-72
2022/05/27 07:18:25;;;;;;;3.60;1.55;;;;;;;28.14;31.20;98802.62;1777114;79;21015;-71
2022/05/27 07:21:02;;;;;;;3.20;1.92;;;;;;;28.19;31.15;98805.81;1759781;80;20991;-72
2022/05/27 07:23:29;;;;;;;3.92;1.70;;;;;;;28.00;30.79;98800.94;1759335;80;20923;-72
2022/05/27 07:25:55;;;;;;;2.25;1.55;;;;;;;28.03;31.03;98815.38;1759823;80;21496;-72
2022/05/27 07:28:22;;;;;;;4.50;1.77;;;;;;;27.83;30.71;98800.12;1759734;80;20950;-72
2022/05/27 07:30:49;;;;;;;5.15;1.70;;;;;;;28.07;30.56;98804.13;1759759;80;21049;-71
2022/05/27 07:33:17;;;;;;;4.70;1.52;;;;;;;28.23;30.83;98790.98;1759690;80;20887;-71
2022/05/27 07:35:45;;;;;;;5.67;1.37;;;;;;;28.35;30.59;98785.28;1759761;80;21010;-72
2022/05/27 07:38:12;;;;;;;7.60;1.70;;;;;;;28.49;30.40;98792.13;1759782;80;21847;-73
2022/05/27 07:40:40;;;;;;;2.22;1.12;;;;;;;28.48;30.46;98787.77;1759649;80;21462;-72
2022/05/27 07:43:08;;;;;;;3.10;1.37;;;;;;;28.56;30.55;98785.70;1759679;80;20880;-72
2022/05/27 07:45:39;;;;;;;1.95;1.35;;;;;;;28.59;30.03;98780.44;1759933;80;20958;-72
2022/05/27 07:48:08;;;;;;;4.47;1.30;;;;;;;28.33;29.62;98784.77;1760717;80;21556;-73
2022/05/27 07:50:35;;;;;;;2.12;1.25;;;;;;;28.04;29.77;98791.05;1759674;80;21273;-72
2022/05/27 07:53:01;;;;;;;7.28;1.60;;;;;;;27.87;29.90;98776.53;1759654;80;21026;-72
2022/05/27 07:55:28;;;;;;;7.72;1.22;;;;;;;27.93;29.69;98776.71;1759644;80;21001;-72
2022/05/27 07:57:54;;;;;;;2.02;1.20;;;;;;;28.11;29.95;98755.92;1759635;80;20868;-72
2022/05/27 08:00:24;;;;;;;2.98;1.22;;;;;;;28.00;29.86;98761.30;1759862;80;21496;-73
2022/05/27 08:02:51;;;;;;;3.52;1.10;;;;;;;27.90;30.09;98763.64;1759660;80;21191;-72
2022/05/27 08:05:21;;;;;;;3.58;1.37;;;;;;;27.81;30.73;98761.91;1759752;80;21402;-72
2022/05/27 08:07:48;;;;;;;3.72;1.52;;;;;;;27.77;30.15;98764.41;1759623;80;20926;-73
2022/05/27 08:10:18;;;;;;;2.67;1.50;;;;;;;27.48;30.21;98756.97;1759788;80;20967;-71
2022/05/27 08:12:46;;;;;;;5.53;1.65;;;;;;;27.32;30.40;98751.47;1759803;80;21048;-74
2022/05/27 08:15:12;;;;;;;2.90;1.10;;;;;;;28.74;29.00;98745.94;1759769;80;21829;-72
2022/05/27 08:17:39;;;;;;;9.50;1.50;;;;;;;29.14;27.88;98730.55;1759511;80;20962;-75
2022/05/27 08:20:07;;;;;;;2.83;1.50;;;;;;;29.48;27.31;98734.16;1759758;80;20868;-73
2022/05/27 08:22:33;;;;;;;3.58;1.32;;;;;;;29.38;27.90;98729.48;1759518;80;20859;-72
2022/05/27 08:25:01;;;;;;;7.20;1.75;;;;;;;29.08;27.81;98737.81;1759718;80;20974;-71
2022/05/27 08:27:28;;;;;;;3.72;1.25;;;;;;;28.84;28.48;98742.17;1759639;80;21261;-74
2022/05/27 08:29:54;;;;;;;3.37;1.40;;;;;;;28.62;28.67;98744.84;1759581;80;21425;-73
2022/05/27 08:32:21;;;;;;;2.33;1.42;;;;;;;28.16;28.61;98741.60;1759701;80;21068;-75
2022/05/27 08:40:36;;;;;;;4.03;1.47;;;;;;;26.57;31.08;98734.18;1779631;80;21274;-72
2022/05/27 08:43:14;;;;;;;2.42;1.25;;;;;;;25.98;31.54;98741.36;1779747;80;20930;-73
2022/05/27 08:45:56;;;;;;;4.50;1.72;;;;;;;25.38;32.34;98743.49;1789677;79;20969;-73
2022/05/27 08:48:25;;;;;;;5.30;1.42;;;;;;;24.88;33.29;98740.55;1789730;79;20883;-73
2022/05/27 08:50:57;;;;;;;5.65;1.30;;;;;;;24.51;33.94;98734.16;1789642;79;20970;-75
2022/05/27 08:53:58;;;;;;;4.45;1.65;;;;;;;24.23;34.56;98747.03;1789703;79;21773;-72
2022/05/27 08:59:56;;;;;;;3.35;1.80;;;;;;;23.58;35.70;98749.27;1780145;80;20947;-72
2022/05/27 09:02:38;;;;;;;3.42;1.60;;;;;;;23.23;36.45;98744.59;1774275;80;20903;-72
2022/05/27 09:05:18;;;;;;;5.25;2.10;;;;;;;23.08;37.06;98733.72;1781414;80;21457;-72
2022/05/27 09:07:54;;;;;;;4.50;1.85;;;;;;;22.90;37.72;98739.66;1788392;79;21136;-72
2022/05/27 09:10:26;;;;;;;2.20;1.90;;;;;;;22.77;38.13;98731.20;1789578;80;20879;-75
2022/05/27 09:13:22;;;;;;;3.40;1.80;;;;;;;22.80;38.60;98719.30;1789205;79;21433;-72
2022/05/27 09:15:56;;;;;;;3.52;1.70;;;;;;;22.81;38.47;98717.41;1769245;79;21089;-72
2022/05/27 09:18:46;;;;;;;2.22;1.57;;;;;;;22.74;38.50;98717.64;1789568;79;20895;-74
2022/05/27 09:21:30;;;;;;;2.87;2.05;;;;;;;22.66;38.72;98718.16;1789583;80;21267;-73
2022/05/27 09:24:38;;;;;;;2.20;1.90;;;;;;;22.59;39.12;98732.47;1781088;80;20879;-74
2022/05/27 09:27:28;;;;;;;4.28;1.80;;;;;;;22.51;39.40;98715.37;1789602;80;20898;-73
2022/05/27 09:30:11;;;;;;;4.60;1.60;;;;;;;22.42;39.69;98710.20;1783635;80;21451;-72
2022/05/27 09:33:06;;;;;;;2.62;1.47;;;;;;;22.33;39.66;98699.58;1789603;79;21409;-74
2022/05/27 09:35:44;;;;;;;3.30;1.70;;;;;;;22.29;40.04;98707.97;1782356;80;21159;-72
2022/05/27 09:38:29;;;;;;;3.67;1.65;;;;;;;22.29;40.39;98703.34;1789556;79;20978;-72
2022/05/27 09:41:02;;;;;;;4.75;1.92;;;;;;;22.34;40.30;98707.99;1789641;79;20926;-72
2022/05/27 09:43:52;;;;;;;5.12;1.70;;;;;;;22.44;40.12;98714.80;1789447;80;20927;-71
2022/05/27 09:46:27;;;;;;;6.58;1.75;;;;;;;22.55;39.93;98702.36;1789739;80;20962;-73
2022/05/27 09:48:57;;;;;;;3.83;1.70;;;;;;;22.68;39.84;98701.11;1789739;80;21146;-72
2022/05/27 09:51:26;;;;;;;3.50;1.47;;;;;;;22.69;39.63;98689.16;1778971;79;21437;-72
2022/05/27 09:54:15;;;;;;;6.08;1.55;;;;;;;22.62;39.75;98677.23;1789669;79;20903;-72
2022/05/27 09:56:59;;;;;;;2.65;1.47;;;;;;;22.62;40.19;98673.67;1759694;80;20983;-73
2022/05/27 09:59:36;;;;;;;4.40;1.37;;;;;;;22.76;39.83;98663.16;1789710;80;20860;-73
2022/05/27 10:02:19;;;;;;;2.87;1.50;;;;;;;22.74;39.93;98665.59;1789742;80;21240;-75
2022/05/27 10:04:57;;;;;;;5.37;1.50;;;;;;;22.77;39.84;98665.59;1776653;79;21492;-72
2022/05/27 10:07:38;;;;;;;2.62;1.57;;;;;;;22.86;39.64;98664.00;1789827;80;20906;-74
2022/05/27 10:10:35;;;;;;;5.90;1.50;;;;;;;22.90;39.43;98661.55;1783407;80;20914;-73
2022/05/27 10:13:28;;;;;;;2.62;1.30;;;;;;;22.93;39.83;98663.72;1789723;80;20974;-73
2022/05/27 10:15:53;;;;;;;3.65;1.50;;;;;;;22.99;39.78;98655.34;1789634;79;21138;-73
2022/05/27 10:18:26;;;;;;;9.45;1.70;;;;;;;22.97;39.65;98645.28;1717459;80;20919;-71
2022/05/27 10:21:13;;;;;;;4.97;1.72;;;;;;;22.86;39.92;98650.44;1759932;80;20895;-73
2022/05/27 10:23:49;;;;;;;2.37;1.30;;;;;;;22.78;39.65;98644.19;1759661;80;21488;-72
2022/05/27 10:26:31;;;;;;;3.37;1.50;;;;;;;22.68;40.15;98634.13;1759570;80;20958;-74
2022/05/27 10:29:08;;;;;;;4.10;1.25;;;;;;;22.62;39.90;98637.08;1789742;80;21224;-71
2022/05/27 10:31:35;;;;;;;3.30;1.42;;;;;;;22.48;40.28;98619.69;1750314;80;20946;-73
2022/05/27 10:34:02;;;;;;;5.42;1.50;;;;;;;22.39;40.62;98627.55;1789733;80;20966;-72
2022/05/27 10:36:52;;;;;;;3.05;1.40;;;;;;;22.37;40.62;98624.27;1789780;80;21028;-73
2022/05/27 10:39:34;;;;;;;4.12;1.70;;;;;;;22.38;40.47;98611.00;1789898;79;21064;-73
2022/05/27 10:42:34;;;;;;;6.35;1.65;;;;;;;22.44;40.34;98605.87;1781836;80;21127;-73
2022/05/27 10:45:12;;;;;;;3.30;1.37;;;;;;;22.53;40.45;98611.56;1781610;79;20883;-74
2022/05/27 10:47:56;;;;;;;4.67;1.50;;;;;;;22.64;40.50;98601.88;1780211;80;21563;-75
2022/05/27 10:50:50;;;;;;;4.75;1.45;;;;;;;22.83;40.54;98598.64;1789760;80;20872;-73
2022/05/27 10:53:45;;;;;;;2.22;1.52;;;;;;;23.03;39.77;98588.61;1789783;79;20966;-73
2022/05/27 10:56:26;;;;;;;1.75;1.32;;;;;;;23.10;39.89;98582.35;1789698;80;21143;-73
2022/05/27 11:02:26;;;;;;;4.50;1.62;;;;;;;23.17;39.52;98585.63;1784421;80;21076;-73
2022/05/27 11:05:23;;;;;;;4.28;1.57;;;;;;;23.19;39.99;98573.95;1759711;80;20982;-73
2022/05/27 11:08:15;;;;;;;2.33;1.45;;;;;;;23.24;40.14;98571.23;1786374;80;21069;-74
2022/05/27 11:11:05;;;;;;;1.85;1.35;;;;;;;;;;1789617;80;21219;-72
2022/05/27 11:17:30;;;;;;;4.15;2.10;;;;;;;23.06;39.96;98572.33;1789710;79;20875;-71
2022/05/27 11:20:41;;;;;;;2.27;1.60;;;;;;;23.00;40.12;98555.23;1789631;80;20926;-74
2022/05/27 11:23:25;;;;;;;1.75;1.47;;;;;;;22.97;40.00;98558.49;1782277;80;20952;-72
2022/05/27 11:26:20;;;;;;;6.47;1.55;;;;;;;22.93;39.96;98562.84;1789769;79;21220;-74
2022/05/27 11:29:07;;;;;;;6.78;2.05;;;;;;;22.93;40.14;98547.93;1759582;80;20942;-74
2022/05/27 11:31:55;;;;;;;2.80;1.47;;;;;;;22.90;39.72;98535.45;1759657;80;20939;-74
2022/05/27 11:34:47;;;;;;;2.60;1.60;;;;;;;22.85;39.94;98540.88;1759798;80;20998;-73
2022/05/27 11:37:42;;;;;;;1.65;1.20;;;;;;;22.78;40.20;98531.67;1783746;80;20926;-74
2022/05/27 11:40:37;;;;;;;2.27;1.62;;;;;;;22.74;40.43;98540.88;1778820;80;21119;-72
2022/05/27 11:43:12;;;;;;;5.15;1.52;;;;;;;22.73;40.50;98525.69;1789652;79;20927;-75
2022/05/27 11:45:47;;;;;;;3.58;1.87;;;;;;;22.72;40.71;98516.48;1789700;79;21001;-73
2022/05/27 11:48:58;;;;;;;2.95;1.82;;;;;;;22.74;40.69;98520.55;1782294;80;21520;-72
2022/05/27 11:51:56;;;;;;;4.60;1.47;;;;;;;22.80;40.85;98508.34;1787001;80;20986;-74
2022/05/27 11:54:40;;;;;;;4.28;1.40;;;;;;;22.92;40.93;98509.69;1789480;79;21151;-72
2022/05/27 11:57:27;;;;;;;8.78;1.62;;;;;;;22.95;40.38;98506.97;1789585;80;21396;-74
2022/05/27 12:00:01;;;;;;;4.55;1.80;;;;;;;22.97;40.19;98500.75;1758973;80;20923;-70
2022/05/27 12:02:41;;;;;;;1.67;1.42;;;;;;;22.98;40.19;98496.40;1755287;80;21500;-72
2022/05/27 12:05:26;;;;;;;4.03;1.62;;;;;;;23.09;39.59;98480.92;1759771;80;20894;-72
2022/05/27 12:08:08;;;;;;;3.72;1.57;;;;;;;;;;1759816;80;21234;-72
2022/05/27 12:10:44;;;;;;;5.28;1.50;;;;;;;23.42;39.42;98479.48;1778946;80;21463;-73
2022/05/27 12:13:31;;;;;;;2.90;1.30;;;;;;;23.63;39.20;98475.60;1781812;80;21460;-74
2022/05/27 12:16:15;;;;;;;2.72;1.45;;;;;;;23.84;38.64;98462.20;1781831;80;21472;-73
2022/05/27 12:18:53;;;;;;;3.92;1.40;;;;;;;24.01;37.50;98468.63;1781765;80;20882;-75
2022/05/27 12:21:24;;;;;;;4.72;1.35;;;;;;;24.09;37.32;98462.63;1781592;80;22906;-75
2022/05/27 12:23:56;;;;;;;2.92;1.15;;;;;;;24.18;37.32;98459.02;1781799;80;21100;-72
2022/05/27 12:26:29;;;;;;;2.37;1.30;;;;;;;24.30;36.75;98460.05;1782057;80;21491;-72
2022/05/27 12:28:56;;;;;;;2.58;0.98;;;;;;;24.36;36.63;98443.40;1781987;80;20966;-72
2022/05/27 12:31:24;;;;;;;3.85;1.12;;;;;;;24.42;36.68;98436.84;1781852;80;21041;-73
2022/05/27 12:33:50;;;;;;;3.05;1.45;;;;;;;24.58;36.40;98438.06;1781874;80;21126;-72
2022/05/27 12:36:26;;;;;;;4.35;1.30;;;;;;;24.66;35.71;98433.36;1781699;80;20926;-71
2022/05/27 12:38:54;;;;;;;4.92;1.40;;;;;;;24.76;34.91;98420.48;1782120;80;28140;-72
2022/05/27 12:41:39;;;;;;;4.08;1.10;;;;;;;24.79;34.19;98413.69;1781900;80;21476;-72